createdAt,value
2022-12-18T00:01:29.946Z,2.55
2022-12-18T00:03:57.298Z,2.38
2022-12-18T00:06:25.367Z,2.80
2022-12-18T00:08:53.237Z,3.17
2022-12-18T00:11:22.047Z,3.30
2022-12-18T00:13:50.856Z,3.08
2022-12-18T00:16:23.603Z,3.00
2022-12-18T00:18:52.326Z,2.97
2022-12-18T00:21:20.140Z,2.80
2022-12-18T00:23:48.561Z,3.17
2022-12-18T00:26:17.765Z,3.50
2022-12-18T00:28:45.284Z,3.75
2022-12-18T00:31:15.083Z,3.72
2022-12-18T00:33:42.656Z,3.72
2022-12-18T00:36:15.455Z,3.33
2022-12-18T00:38:42.774Z,3.80
2022-12-18T00:41:10.649Z,3.60
2022-12-18T00:43:38.855Z,3.05
2022-12-18T00:46:06.185Z,3.80
2022-12-18T00:48:33.727Z,3.95
2022-12-18T00:51:00.566Z,3.38
2022-12-18T00:53:27.326Z,3.47
2022-12-18T00:55:54.078Z,4.40
2022-12-18T00:58:20.836Z,3.63
2022-12-18T01:00:47.653Z,3.42
2022-12-18T01:03:15.431Z,3.83
2022-12-18T01:05:44.498Z,3.20
2022-12-18T01:08:12.094Z,3.28
2022-12-18T01:10:41.882Z,3.13
2022-12-18T01:13:08.656Z,3.35
2022-12-18T01:15:36.046Z,3.38
2022-12-18T01:18:02.954Z,3.28
2022-12-18T01:20:29.710Z,3.63
2022-12-18T01:22:56.470Z,3.28
2022-12-18T01:25:23.277Z,3.33
2022-12-18T01:27:51.203Z,3.47
2022-12-18T01:30:17.972Z,3.15
2022-12-18T01:32:45.795Z,3.70
2022-12-18T01:35:12.585Z,3.92
2022-12-18T01:37:39.354Z,3.75
2022-12-18T01:40:06.910Z,4.65
2022-12-18T01:42:34.189Z,4.70
2022-12-18T01:45:00.944Z,4.70
2022-12-18T01:47:40.914Z,4.10
2022-12-18T01:50:37.870Z,4.53
2022-12-18T01:53:11.690Z,4.32
2022-12-18T01:55:48.311Z,5.50
2022-12-18T01:58:15.449Z,4.82
2022-12-18T02:00:42.496Z,4.15
2022-12-18T02:03:09.789Z,5.40
2022-12-18T02:05:47.401Z,4.57
2022-12-18T02:08:23.437Z,4.07
2022-12-18T02:10:56.947Z,5.22
2022-12-18T02:13:53.672Z,5.07
2022-12-18T02:16:44.884Z,5.20
2022-12-18T02:19:34.830Z,5.45
2022-12-18T02:22:04.265Z,4.35
2022-12-18T02:24:42.697Z,4.30
2022-12-18T02:27:10.661Z,4.30
2022-12-18T02:29:58.220Z,5.00
2022-12-18T02:32:38.761Z,5.05
2022-12-18T02:35:07.796Z,5.05
2022-12-18T02:37:35.953Z,4.82
2022-12-18T02:40:06.669Z,5.03
2022-12-18T02:42:35.827Z,4.90
2022-12-18T02:45:05.531Z,5.03
2022-12-18T02:47:35.281Z,4.68
2022-12-18T02:50:39.372Z,4.80
2022-12-18T02:53:19.228Z,4.70
2022-12-18T02:55:46.934Z,5.80
2022-12-18T02:58:28.907Z,4.90
2022-12-18T03:01:24.108Z,5.50
2022-12-18T03:04:01.165Z,4.43
2022-12-18T03:06:31.737Z,5.43
2022-12-18T03:09:01.514Z,4.57
2022-12-18T03:11:50.968Z,4.53
2022-12-18T03:14:19.554Z,4.85
2022-12-18T03:16:51.103Z,5.28
2022-12-18T03:19:19.860Z,4.85
2022-12-18T03:21:57.605Z,4.75
2022-12-18T03:24:28.001Z,4.70
2022-12-18T03:26:58.790Z,4.07
2022-12-18T03:29:28.998Z,3.60
2022-12-18T03:32:04.064Z,3.88
2022-12-18T03:34:35.068Z,2.97
2022-12-18T03:37:04.626Z,3.00
2022-12-18T03:39:33.200Z,3.83
2022-12-18T03:42:26.621Z,2.70
2022-12-18T03:45:24.195Z,3.22
2022-12-18T03:47:56.951Z,3.38
2022-12-18T03:50:38.474Z,2.53
2022-12-18T03:53:12.528Z,3.35
2022-12-18T03:55:39.916Z,3.10
2022-12-18T03:58:08.945Z,2.78
2022-12-18T04:00:53.637Z,3.13
2022-12-18T04:05:54.220Z,3.22
2022-12-18T04:08:23.041Z,2.53
2022-12-18T04:11:00.757Z,2.33
2022-12-18T04:13:36.767Z,2.83
2022-12-18T04:16:07.804Z,3.05
2022-12-18T04:18:35.478Z,2.45
2022-12-18T04:21:03.528Z,2.72
2022-12-18T04:23:30.446Z,2.78
2022-12-18T04:25:59.064Z,3.30
2022-12-18T04:28:51.060Z,3.00
2022-12-18T04:31:17.963Z,3.35
2022-12-18T04:33:44.916Z,2.70
2022-12-18T04:36:13.818Z,3.22
2022-12-18T04:38:41.422Z,2.58
2022-12-18T04:41:15.159Z,3.03
2022-12-18T04:43:43.777Z,2.58
2022-12-18T04:46:10.920Z,3.67
2022-12-18T04:48:38.164Z,2.72
2022-12-18T04:51:06.068Z,3.00
2022-12-18T04:53:33.286Z,2.67
2022-12-18T04:56:13.945Z,3.08
2022-12-18T04:58:42.003Z,3.47
2022-12-18T05:01:09.314Z,3.63
2022-12-18T05:03:37.215Z,3.13
2022-12-18T05:06:05.051Z,5.00
2022-12-18T05:08:31.998Z,3.33
2022-12-18T05:11:07.839Z,3.22
2022-12-18T05:13:35.327Z,3.78
2022-12-18T05:16:02.567Z,3.50
2022-12-18T05:18:29.521Z,3.90
2022-12-18T05:20:56.340Z,4.93
2022-12-18T05:23:24.468Z,4.30
2022-12-18T05:25:56.305Z,4.40
2022-12-18T05:28:24.307Z,4.38
2022-12-18T05:30:52.268Z,4.38
2022-12-18T05:33:19.933Z,4.13
2022-12-18T05:35:54.757Z,4.47
2022-12-18T05:38:23.387Z,4.15
2022-12-18T05:40:51.521Z,4.20
2022-12-18T05:43:21.328Z,4.55
2022-12-18T05:45:49.180Z,4.35
2022-12-18T05:48:16.639Z,4.47
2022-12-18T05:50:48.174Z,4.07
2022-12-18T05:53:16.967Z,3.92
2022-12-18T05:55:44.753Z,4.55
2022-12-18T05:58:12.627Z,5.22
2022-12-18T06:00:41.040Z,5.40
2022-12-18T06:03:09.678Z,5.90
2022-12-18T06:05:38.279Z,5.40
2022-12-18T06:08:05.436Z,5.70
2022-12-18T06:10:32.367Z,5.22
2022-12-18T06:13:18.248Z,4.97
2022-12-18T06:15:45.000Z,6.03
2022-12-18T06:18:11.736Z,5.50
2022-12-18T06:20:40.700Z,4.40
2022-12-18T06:23:07.597Z,5.35
2022-12-18T06:25:34.369Z,5.20
2022-12-18T06:28:01.156Z,5.88
2022-12-18T06:30:27.898Z,4.65
2022-12-18T06:32:56.734Z,4.20
2022-12-18T06:35:24.167Z,3.63
2022-12-18T06:37:50.952Z,4.53
2022-12-18T06:40:18.099Z,4.55
2022-12-18T06:42:44.987Z,4.82
2022-12-18T06:45:12.619Z,4.10
2022-12-18T06:47:39.516Z,3.85
2022-12-18T06:50:06.919Z,3.75
2022-12-18T06:52:34.670Z,4.88
2022-12-18T06:55:01.874Z,3.65
2022-12-18T06:57:28.591Z,4.07
2022-12-18T06:59:55.461Z,4.72
2022-12-18T07:02:22.321Z,3.80
2022-12-18T07:04:52.290Z,4.43
2022-12-18T07:07:19.328Z,4.05
2022-12-18T07:09:46.085Z,4.13
2022-12-18T07:12:12.934Z,4.55
2022-12-18T07:14:39.875Z,4.20
2022-12-18T07:17:06.802Z,4.97
2022-12-18T07:19:34.087Z,3.65
2022-12-18T07:22:01.507Z,4.30
2022-12-18T07:24:29.468Z,4.60
2022-12-18T07:26:56.301Z,4.00
2022-12-18T07:29:23.121Z,4.20
2022-12-18T07:31:50.242Z,4.45
2022-12-18T07:34:17.239Z,5.35
2022-12-18T07:36:44.081Z,5.30
2022-12-18T07:39:12.729Z,4.28
2022-12-18T07:41:45.183Z,4.40
2022-12-18T07:44:16.153Z,3.55
2022-12-18T07:46:42.965Z,4.82
2022-12-18T07:49:09.692Z,5.03
2022-12-18T07:51:36.540Z,5.55
2022-12-18T07:54:03.404Z,4.88
2022-12-18T07:56:31.427Z,4.95
2022-12-18T07:58:59.312Z,4.65
2022-12-18T08:01:26.367Z,4.97
2022-12-18T08:03:53.331Z,4.47
2022-12-18T08:06:23.960Z,5.07
2022-12-18T08:08:55.446Z,5.43
2022-12-18T08:11:23.530Z,5.13
2022-12-18T08:13:50.281Z,7.43
2022-12-18T08:16:17.228Z,5.43
2022-12-18T08:18:44.107Z,5.93
2022-12-18T08:21:13.953Z,7.22
2022-12-18T08:23:43.229Z,5.80
2022-12-18T08:26:11.595Z,6.72
2022-12-18T08:28:38.478Z,7.38
2022-12-18T08:31:05.659Z,6.50
2022-12-18T08:33:33.588Z,6.65
2022-12-18T08:36:01.192Z,7.05
2022-12-18T08:38:28.382Z,7.15
2022-12-18T08:41:06.488Z,7.35
2022-12-18T08:43:51.875Z,7.03
2022-12-18T08:46:19.881Z,6.32
2022-12-18T08:48:47.035Z,7.40
2022-12-18T08:51:13.956Z,7.43
2022-12-18T08:53:41.151Z,7.60
2022-12-18T08:56:08.735Z,7.43
2022-12-18T08:58:35.552Z,8.52
2022-12-18T09:01:09.941Z,8.07
2022-12-18T09:03:37.498Z,7.72
2022-12-18T09:06:04.945Z,9.70
2022-12-18T09:08:31.729Z,10.35
2022-12-18T09:11:01.580Z,8.32
2022-12-18T09:13:28.565Z,9.38
2022-12-18T09:15:56.615Z,9.35
2022-12-18T09:18:24.943Z,8.75
2022-12-18T09:20:53.557Z,10.25
2022-12-18T09:23:20.908Z,10.63
2022-12-18T09:25:48.014Z,9.48
2022-12-18T09:28:18.875Z,8.32
2022-12-18T09:30:48.708Z,9.40
2022-12-18T09:33:16.374Z,10.20
2022-12-18T09:35:44.726Z,9.77
2022-12-18T09:38:18.963Z,9.32
2022-12-18T09:40:51.431Z,9.57
2022-12-18T09:43:25.802Z,9.18
2022-12-18T09:45:56.455Z,9.70
2022-12-18T09:48:29.399Z,10.63
2022-12-18T09:51:01.191Z,8.80
2022-12-18T09:53:29.570Z,8.98
2022-12-18T09:55:57.621Z,8.50
2022-12-18T09:58:41.219Z,10.27
2022-12-18T10:01:19.339Z,9.18
2022-12-18T10:03:46.226Z,10.32
2022-12-18T10:06:18.494Z,8.55
2022-12-18T10:08:52.810Z,8.25
2022-12-18T10:11:50.817Z,6.90
2022-12-18T10:14:42.642Z,8.35
2022-12-18T10:17:16.386Z,7.63
2022-12-18T10:20:19.806Z,7.85
2022-12-18T10:22:54.036Z,7.82
2022-12-18T10:25:20.875Z,8.20
2022-12-18T10:27:48.059Z,9.45
2022-12-18T10:30:17.360Z,8.40
2022-12-18T10:32:44.401Z,8.20
2022-12-18T10:35:18.950Z,8.60
2022-12-18T10:38:08.248Z,6.97
2022-12-18T10:40:48.683Z,7.68
2022-12-18T10:43:16.759Z,7.50
2022-12-18T10:46:03.108Z,8.18
2022-12-18T10:48:31.462Z,7.97
2022-12-18T10:51:14.020Z,8.82
2022-12-18T10:53:43.038Z,8.50
2022-12-18T10:56:09.810Z,9.25
2022-12-18T10:58:38.450Z,8.18
2022-12-18T11:01:14.310Z,7.05
2022-12-18T11:03:45.413Z,7.20
2022-12-18T11:06:12.145Z,6.47
2022-12-18T11:08:40.088Z,7.10
2022-12-18T11:11:17.320Z,7.15
2022-12-18T11:14:13.622Z,5.53
2022-12-18T11:17:25.008Z,6.45
2022-12-18T11:19:35.833Z,6.03
2022-12-18T11:22:05.247Z,7.28
2022-12-18T11:24:36.775Z,6.35
2022-12-18T11:27:05.724Z,5.47
2022-12-18T11:32:16.098Z,5.60
2022-12-18T11:34:49.425Z,5.00
2022-12-18T11:37:20.195Z,5.68
2022-12-18T11:39:51.684Z,6.05
2022-12-18T11:42:22.830Z,5.93
2022-12-18T11:44:53.002Z,6.50
2022-12-18T11:47:26.870Z,5.60
2022-12-18T11:49:54.179Z,6.10
2022-12-18T11:52:25.171Z,4.90
2022-12-18T11:54:53.980Z,5.90
2022-12-18T11:57:40.815Z,5.07
2022-12-18T12:00:16.019Z,4.57
2022-12-18T12:02:57.950Z,6.05
2022-12-18T12:05:43.155Z,6.40
2022-12-18T12:08:12.909Z,6.50
2022-12-18T12:10:46.551Z,5.60
2022-12-18T12:13:48.063Z,5.55
2022-12-18T12:16:42.952Z,6.28
2022-12-18T12:19:28.097Z,6.30
2022-12-18T12:22:03.533Z,6.72
2022-12-18T12:27:17.250Z,5.57
2022-12-18T12:29:52.186Z,5.68
2022-12-18T12:32:37.105Z,6.00
2022-12-18T12:35:15.603Z,6.10
2022-12-18T12:37:59.072Z,5.78
2022-12-18T12:43:21.098Z,6.82
2022-12-18T12:46:10.993Z,5.75
2022-12-18T12:49:05.836Z,5.65
2022-12-18T12:51:38.845Z,6.38
2022-12-18T12:54:19.101Z,6.40
2022-12-18T12:57:10.295Z,7.03
2022-12-18T12:59:41.163Z,6.82
2022-12-18T13:02:37.071Z,7.20
2022-12-18T13:05:04.629Z,6.82
2022-12-18T13:07:48.731Z,7.88
2022-12-18T13:10:20.848Z,7.10
2022-12-18T13:13:00.066Z,6.60
2022-12-18T13:15:40.868Z,6.63
2022-12-18T13:18:10.317Z,6.93
2022-12-18T13:21:05.490Z,6.65
2022-12-18T13:23:35.316Z,7.68
2022-12-18T13:26:11.594Z,6.78
2022-12-18T13:28:47.935Z,7.30
2022-12-18T13:31:16.573Z,7.50
2022-12-18T13:36:34.585Z,7.53
2022-12-18T13:39:19.707Z,6.97
2022-12-18T13:41:55.486Z,7.45
2022-12-18T13:44:22.502Z,7.97
2022-12-18T13:46:51.696Z,7.25
2022-12-18T13:49:24.620Z,7.35
2022-12-18T13:51:53.864Z,7.43
2022-12-18T13:54:43.850Z,6.68
2022-12-18T13:57:29.055Z,7.47
2022-12-18T13:59:56.903Z,7.32
2022-12-18T14:02:26.341Z,7.72
2022-12-18T14:04:54.051Z,6.88
2022-12-18T14:07:24.139Z,6.30
2022-12-18T14:10:12.098Z,7.70
2022-12-18T14:13:00.888Z,6.97
2022-12-18T14:15:54.836Z,6.53
2022-12-18T14:18:22.161Z,7.70
2022-12-18T14:20:52.840Z,8.07
2022-12-18T14:23:33.784Z,8.57
2022-12-18T14:26:06.257Z,8.45
2022-12-18T14:28:33.290Z,7.20
2022-12-18T14:31:00.285Z,7.75
2022-12-18T14:33:28.609Z,6.63
2022-12-18T14:36:01.672Z,8.52
2022-12-18T14:38:39.583Z,6.88
2022-12-18T14:41:14.487Z,6.60
2022-12-18T14:43:44.255Z,7.18
2022-12-18T14:46:37.022Z,7.18
2022-12-18T14:49:06.902Z,6.55
2022-12-18T14:51:39.709Z,6.88
2022-12-18T14:54:16.329Z,8.55
2022-12-18T14:57:04.455Z,6.35
2022-12-18T15:02:12.510Z,6.82
2022-12-18T15:04:41.713Z,7.05
2022-12-18T15:07:19.592Z,7.68
2022-12-18T15:12:38.498Z,6.93
2022-12-18T15:15:06.667Z,7.32
2022-12-18T15:17:33.519Z,8.07
2022-12-18T15:20:03.727Z,7.55
2022-12-18T15:22:33.826Z,7.07
2022-12-18T15:25:01.199Z,7.25
2022-12-18T15:27:39.084Z,7.43
2022-12-18T15:30:09.033Z,7.28
2022-12-18T15:32:37.327Z,6.95
2022-12-18T15:35:25.045Z,8.18
2022-12-18T15:37:52.797Z,6.68
2022-12-18T15:40:25.022Z,7.15
2022-12-18T15:43:13.237Z,5.70
2022-12-18T15:45:40.146Z,5.65
2022-12-18T15:48:21.917Z,5.47
2022-12-18T15:53:15.556Z,5.60
2022-12-18T15:56:01.331Z,6.72
2022-12-18T15:58:28.237Z,6.30
2022-12-18T16:00:57.152Z,6.95
2022-12-18T16:05:51.418Z,5.90
2022-12-18T16:08:18.238Z,6.35
2022-12-18T16:10:45.002Z,6.43
2022-12-18T16:13:13.179Z,6.80
2022-12-18T16:15:40.001Z,6.20
2022-12-18T16:18:06.804Z,5.88
2022-12-18T16:20:33.636Z,5.78
2022-12-18T16:23:00.473Z,6.90
2022-12-18T16:25:29.675Z,6.50
2022-12-18T16:27:57.097Z,6.30
2022-12-18T16:30:28.238Z,5.70
2022-12-18T16:32:56.297Z,5.88
2022-12-18T16:35:23.890Z,5.63
2022-12-18T16:37:50.717Z,5.15
2022-12-18T16:40:18.224Z,5.15
2022-12-18T16:42:46.145Z,4.93
2022-12-18T16:45:15.629Z,5.85
2022-12-18T16:47:42.524Z,5.30
2022-12-18T16:50:10.164Z,5.63
2022-12-18T16:52:37.065Z,5.43
2022-12-18T16:55:04.315Z,4.85
2022-12-18T16:57:31.180Z,5.82
2022-12-18T17:00:04.439Z,5.47
2022-12-18T17:02:32.596Z,6.38
2022-12-18T17:04:59.829Z,6.30
2022-12-18T17:07:28.331Z,4.90
2022-12-18T17:09:55.849Z,4.47
2022-12-18T17:12:23.067Z,4.85
2022-12-18T17:14:49.953Z,5.10
2022-12-18T17:17:22.582Z,4.18
2022-12-18T17:19:51.901Z,6.03
2022-12-18T17:22:19.645Z,5.38
2022-12-18T17:24:47.138Z,5.20
2022-12-18T17:27:14.125Z,5.10
2022-12-18T17:29:46.812Z,5.75
2022-12-18T17:32:15.598Z,5.13
2022-12-18T17:34:42.308Z,5.35
2022-12-18T17:37:09.485Z,5.65
2022-12-18T17:39:36.531Z,5.85
2022-12-18T17:42:03.935Z,4.78
2022-12-18T17:44:31.974Z,4.43
2022-12-18T17:46:58.873Z,6.10
2022-12-18T17:49:25.728Z,6.05
2022-12-18T17:51:52.647Z,5.85
2022-12-18T17:54:19.739Z,6.07
2022-12-18T17:56:46.500Z,5.90
2022-12-18T17:59:13.246Z,6.20
2022-12-18T18:01:44.482Z,6.10
2022-12-18T18:04:12.696Z,5.85
2022-12-18T18:06:39.695Z,5.38
2022-12-18T18:09:13.420Z,5.25
2022-12-18T18:12:02.703Z,5.43
2022-12-18T18:14:29.897Z,5.35
2022-12-18T18:16:56.879Z,6.15
2022-12-18T18:19:25.992Z,6.05
2022-12-18T18:21:54.617Z,6.05
2022-12-18T18:24:23.652Z,5.18
2022-12-18T18:26:50.903Z,5.47
2022-12-18T18:29:20.894Z,5.65
2022-12-18T18:31:48.564Z,4.93
2022-12-18T18:34:23.018Z,5.75
2022-12-18T18:36:49.836Z,5.43
2022-12-18T18:39:16.704Z,6.30
2022-12-18T18:41:47.179Z,5.93
2022-12-18T18:44:15.124Z,6.43
2022-12-18T18:46:41.969Z,6.03
2022-12-18T18:49:09.524Z,6.40
2022-12-18T18:51:36.254Z,6.10
2022-12-18T18:54:03.111Z,5.32
2022-12-18T18:59:18.438Z,6.75
2022-12-18T19:01:45.551Z,5.95
2022-12-18T19:04:12.513Z,6.13
2022-12-18T19:06:39.423Z,6.65
2022-12-18T19:09:06.763Z,6.70
2022-12-18T19:11:52.076Z,6.68
2022-12-18T19:14:18.958Z,7.55
2022-12-18T19:16:45.868Z,7.25
2022-12-18T19:19:13.335Z,6.13
2022-12-18T19:21:40.845Z,5.57
2022-12-18T19:24:08.034Z,6.53
2022-12-18T19:26:37.754Z,5.95
2022-12-18T19:29:09.112Z,5.70
2022-12-18T19:31:37.313Z,6.93
2022-12-18T19:34:06.757Z,6.40
2022-12-18T19:36:35.319Z,7.30
2022-12-18T19:39:03.033Z,5.57
2022-12-18T19:41:31.600Z,5.55
2022-12-18T19:44:02.241Z,7.00
2022-12-18T19:46:35.049Z,6.38
2022-12-18T19:49:02.158Z,6.60
2022-12-18T19:51:30.914Z,6.53
2022-12-18T19:54:00.511Z,6.53
2022-12-18T19:56:31.035Z,6.07
2022-12-18T19:58:58.253Z,5.65
2022-12-18T20:01:26.639Z,5.97
2022-12-18T20:03:54.534Z,6.30
2022-12-18T20:09:00.640Z,5.43
2022-12-18T20:11:29.883Z,5.80
2022-12-18T20:13:57.274Z,6.22
2022-12-18T20:16:24.117Z,6.85
2022-12-18T20:18:50.964Z,7.47
2022-12-18T20:21:19.207Z,6.47
2022-12-18T20:23:46.146Z,7.38
2022-12-18T20:26:13.114Z,7.35
2022-12-18T20:28:40.515Z,6.85
2022-12-18T20:31:13.402Z,6.25
2022-12-18T20:33:42.178Z,6.22
2022-12-18T20:36:13.708Z,6.43
2022-12-18T20:38:41.399Z,6.47
2022-12-18T20:41:16.447Z,7.35
2022-12-18T20:43:44.300Z,6.55
2022-12-18T20:46:13.366Z,7.18
2022-12-18T20:48:40.557Z,7.63
2022-12-18T20:51:10.298Z,7.10
2022-12-18T20:53:37.728Z,7.00
2022-12-18T20:56:09.707Z,6.38
2022-12-18T20:58:36.585Z,5.78
2022-12-18T21:01:20.384Z,5.97
2022-12-18T21:03:47.785Z,6.85
2022-12-18T21:06:15.797Z,6.15
2022-12-18T21:08:43.205Z,6.45
2022-12-18T21:11:40.876Z,6.78
2022-12-18T21:14:13.866Z,5.45
2022-12-18T21:16:40.818Z,6.13
2022-12-18T21:19:07.631Z,6.40
2022-12-18T21:21:35.867Z,6.57
2022-12-18T21:24:06.720Z,6.30
2022-12-18T21:26:41.851Z,5.80
2022-12-18T21:29:22.796Z,6.20
2022-12-18T21:31:50.854Z,5.47
2022-12-18T21:34:26.503Z,6.57
2022-12-18T21:36:54.064Z,5.70
2022-12-18T21:39:21.742Z,6.90
2022-12-18T21:42:08.432Z,6.22
2022-12-18T21:44:41.726Z,5.88
2022-12-18T21:47:20.913Z,7.07
2022-12-18T21:49:51.954Z,7.13
2022-12-18T21:52:18.812Z,6.68
2022-12-18T21:54:45.566Z,6.43
2022-12-18T21:57:13.554Z,6.10
2022-12-18T21:59:42.607Z,6.82
2022-12-18T22:02:16.608Z,7.03
2022-12-18T22:04:44.581Z,7.13
2022-12-18T22:07:12.153Z,6.13
2022-12-18T22:09:39.413Z,6.65
2022-12-18T22:12:06.857Z,7.38
2022-12-18T22:14:33.627Z,6.85
2022-12-18T22:17:01.216Z,6.75
2022-12-18T22:19:29.304Z,7.25
2022-12-18T22:21:56.140Z,6.90
2022-12-18T22:24:25.055Z,7.38
2022-12-18T22:26:58.609Z,6.30
2022-12-18T22:29:47.752Z,7.00
2022-12-18T22:32:30.490Z,7.25
2022-12-18T22:35:05.851Z,6.53
2022-12-18T22:37:34.307Z,5.78
2022-12-18T22:40:03.137Z,7.13
2022-12-18T22:42:31.086Z,5.85
2022-12-18T22:44:57.869Z,6.90
2022-12-18T22:47:29.371Z,7.30
2022-12-18T22:49:57.017Z,6.45
2022-12-18T22:52:24.826Z,6.00
2022-12-18T22:54:53.316Z,6.43
2022-12-18T22:57:21.716Z,7.22
2022-12-18T22:59:49.419Z,6.88
2022-12-18T23:02:17.714Z,7.32
2022-12-18T23:04:45.170Z,6.82
2022-12-18T23:07:12.041Z,7.30
2022-12-18T23:09:39.947Z,6.60
2022-12-18T23:12:07.047Z,7.07
2022-12-18T23:14:33.884Z,7.57
2022-12-18T23:17:00.673Z,7.05
2022-12-18T23:19:27.461Z,6.95
2022-12-18T23:21:54.867Z,7.15
2022-12-18T23:24:27.307Z,7.45
2022-12-18T23:26:55.602Z,8.35
2022-12-18T23:29:22.366Z,7.65
2022-12-18T23:31:49.174Z,7.57
2022-12-18T23:34:15.935Z,7.28
2022-12-18T23:36:46.285Z,7.32
2022-12-18T23:39:24.361Z,7.15
2022-12-18T23:42:00.715Z,7.90
2022-12-18T23:44:28.017Z,6.90
2022-12-18T23:46:55.533Z,6.18
2022-12-18T23:49:22.468Z,7.82
2022-12-18T23:51:49.552Z,7.30
2022-12-18T23:54:16.382Z,7.10
2022-12-18T23:56:43.328Z,7.10
2022-12-18T23:59:10.308Z,7.47
